Time;durP1;ratioP1;P1;durP2;ratioP2;P2;SDS_P1;SDS_P2;PMS_P1;PMS_P2;Temp;Humidity;BMP_temperature;BMP_pressure;BME280_temperature;BME280_humidity;BME280_pressure;Samples;Min_cycle;Max_cycle;Signal;HPM_P1;HPM_P2
2022/08/16 00:00:28;;;;;;;17.12;14.80;;;;;;;19.88;100.00;98026.87;2212156;79;20990;-88
2022/08/16 00:03:30;;;;;;;18.17;13.48;;;;;;;19.87;100.00;98032.45;2231703;79;21039;-88
2022/08/16 00:06:31;;;;;;;15.35;13.72;;;;;;;19.83;100.00;98025.50;2143714;83;21009;-87
2022/08/16 00:09:31;;;;;;;16.37;13.78;;;;;;;19.81;100.00;98014.87;2180884;81;21005;-88
2022/08/16 00:12:32;;;;;;;17.30;14.38;;;;;;;19.77;100.00;98017.78;2173882;80;21089;-86
2022/08/16 00:15:33;;;;;;;14.78;13.20;;;;;;;19.74;100.00;98022.25;2108933;84;21060;-87
2022/08/16 00:18:33;;;;;;;19.23;15.03;;;;;;;19.69;100.00;98020.91;2112722;84;21125;-88
2022/08/16 00:21:34;;;;;;;15.88;14.10;;;;;;;19.65;100.00;98012.63;2128048;83;21423;-87
2022/08/16 00:24:35;;;;;;;18.73;14.78;;;;;;;19.65;100.00;98021.92;2175725;80;21512;-86
2022/08/16 00:27:36;;;;;;;16.73;15.15;;;;;;;19.64;100.00;98015.55;2218931;80;21025;-87
2022/08/16 00:30:36;;;;;;;15.68;13.65;;;;;;;19.60;100.00;98018.72;2212085;80;21148;-87
2022/08/16 00:33:37;;;;;;;18.80;14.87;;;;;;;19.62;100.00;98021.64;2211400;80;20997;-87
2022/08/16 00:36:38;;;;;;;16.17;14.58;;;;;;;19.59;100.00;98027.73;2223772;80;21484;-88
2022/08/16 00:39:38;;;;;;;15.28;13.68;;;;;;;19.57;100.00;98027.20;2212327;80;21013;-89
2022/08/16 00:42:39;;;;;;;19.32;14.83;;;;;;;19.59;100.00;98028.27;2209658;80;21071;-88
2022/08/16 00:45:40;;;;;;;18.48;15.88;;;;;;;19.60;100.00;98025.88;2151699;82;20966;-88
2022/08/16 00:48:40;;;;;;;25.45;21.20;;;;;;;19.62;100.00;98028.28;2153932;82;21504;-88
2022/08/16 00:51:43;;;;;;;16.20;14.60;;;;;;;19.52;100.00;98034.28;2112262;82;21045;-88
2022/08/16 00:54:44;;;;;;;17.05;15.32;;;;;;;19.37;100.00;98034.95;2141443;83;20998;-87
2022/08/16 00:57:44;;;;;;;16.48;13.95;;;;;;;19.26;100.00;98030.61;2105310;84;21536;-86
2022/08/16 01:00:46;;;;;;;18.95;15.20;;;;;;;19.20;100.00;98036.91;2166929;80;21005;-88
2022/08/16 01:03:47;;;;;;;16.85;14.35;;;;;;;19.14;100.00;98035.28;2204634;81;21064;-87
2022/08/16 01:06:47;;;;;;;17.52;13.78;;;;;;;19.10;100.00;98034.96;2208414;80;21037;-88
2022/08/16 01:09:48;;;;;;;20.52;16.48;;;;;;;19.07;100.00;98034.67;2205332;80;20977;-88
2022/08/16 01:12:49;;;;;;;16.48;14.68;;;;;;;18.98;100.00;98031.66;2136172;83;21056;-88
2022/08/16 01:15:50;;;;;;;17.30;15.68;;;;;;;18.89;100.00;98021.23;2148230;82;20986;-87
2022/08/16 01:18:50;;;;;;;19.15;16.60;;;;;;;18.85;100.00;98026.23;2159457;82;21037;-88
2022/08/16 01:21:51;;;;;;;17.50;15.60;;;;;;;18.84;100.00;98024.64;2158662;81;21564;-88
2022/08/16 01:24:52;;;;;;;18.73;16.65;;;;;;;18.82;100.00;98026.72;2152229;82;21046;-86
2022/08/16 01:27:53;;;;;;;20.12;16.57;;;;;;;18.81;100.00;98022.99;2155646;82;21060;-87
2022/08/16 01:30:54;;;;;;;18.50;16.48;;;;;;;18.83;100.00;98024.34;2159444;81;20994;-88
2022/08/16 01:33:54;;;;;;;18.62;16.60;;;;;;;18.86;100.00;98020.41;2160382;82;21036;-87
2022/08/16 01:36:55;;;;;;;17.62;15.65;;;;;;;18.89;100.00;98022.02;2161391;82;21108;-87
2022/08/16 01:39:56;;;;;;;18.32;16.52;;;;;;;18.94;100.00;98022.62;2178758;80;20999;-87
2022/08/16 01:42:57;;;;;;;19.07;16.25;;;;;;;18.99;100.00;98019.47;2199131;80;21064;-86
2022/08/16 01:45:58;;;;;;;18.65;16.07;;;;;;;19.02;100.00;98016.87;2139542;83;20986;-88
2022/08/16 01:48:58;;;;;;;20.97;18.23;;;;;;;19.04;100.00;98018.73;2168937;80;21114;-88
2022/08/16 01:51:59;;;;;;;26.62;23.77;;;;;;;19.03;100.00;98017.94;2158860;80;21071;-88
2022/08/16 01:55:00;;;;;;;32.35;25.50;;;;;;;18.98;100.00;98015.22;2148061;81;21450;-88
2022/08/16 01:58:00;;;;;;;27.75;23.90;;;;;;;18.97;100.00;98020.78;2122196;81;21589;-88
2022/08/16 02:01:01;;;;;;;25.30;20.50;;;;;;;18.94;100.00;98022.62;2138228;82;21512;-86
2022/08/16 02:04:02;;;;;;;33.88;23.73;;;;;;;18.90;100.00;98024.16;2180142;81;21002;-86
2022/08/16 02:07:07;;;;;;;25.12;21.35;;;;;;;18.90;100.00;98021.50;2179048;81;21552;-87
2022/08/16 02:10:05;;;;;;;22.60;19.07;;;;;;;18.90;100.00;98024.95;2162119;80;21082;-88
2022/08/16 02:13:06;;;;;;;21.33;18.52;;;;;;;18.88;100.00;98016.45;2179594;80;21002;-85
2022/08/16 02:16:07;;;;;;;20.55;18.20;;;;;;;18.85;100.00;98010.33;2149210;83;21036;-84
2022/08/16 02:19:07;;;;;;;18.80;16.32;;;;;;;18.79;100.00;98007.86;2137742;81;21016;-86
2022/08/16 02:22:09;;;;;;;21.02;17.25;;;;;;;18.77;100.00;98004.67;2226585;79;21108;-89
2022/08/16 02:25:10;;;;;;;24.37;19.62;;;;;;;18.75;100.00;98000.94;2228672;80;21011;-87
2022/08/16 02:28:11;;;;;;;24.92;19.55;;;;;;;18.64;100.00;98001.30;2219403;78;21516;-88
2022/08/16 02:31:12;;;;;;;22.87;19.07;;;;;;;18.57;100.00;97998.59;2220764;79;21548;-87
2022/08/16 02:34:12;;;;;;;19.65;17.60;;;;;;;18.53;100.00;98003.56;2228679;79;21010;-88
2022/08/16 02:37:13;;;;;;;20.27;17.15;;;;;;;18.52;100.00;98001.17;2235942;80;21001;-87
2022/08/16 02:40:15;;;;;;;24.92;18.70;;;;;;;18.50;100.00;98008.05;2227184;79;20981;-88
2022/08/16 02:43:19;;;;;;;19.73;17.20;;;;;;;18.48;100.00;98003.53;2220914;78;21036;-88
2022/08/16 02:46:19;;;;;;;20.92;18.07;;;;;;;18.46;100.00;98006.92;2208920;80;21526;-89
2022/08/16 02:49:20;;;;;;;22.80;19.02;;;;;;;18.41;100.00;98005.03;2210485;80;21009;-88
2022/08/16 02:52:21;;;;;;;20.05;17.62;;;;;;;18.37;100.00;97999.13;2210989;80;21032;-87
2022/08/16 02:55:22;;;;;;;20.08;17.10;;;;;;;18.35;100.00;97999.91;2227945;78;21021;-87
2022/08/16 02:58:22;;;;;;;21.95;17.02;;;;;;;18.29;100.00;97999.06;2234721;79;21036;-87
2022/08/16 03:01:24;;;;;;;21.33;16.90;;;;;;;18.29;100.00;97999.06;2228580;79;21567;-87
2022/08/16 03:04:24;;;;;;;21.15;17.75;;;;;;;18.28;100.00;98000.08;2195096;80;21077;-89
2022/08/16 03:07:25;;;;;;;23.50;17.30;;;;;;;18.28;100.00;98001.93;2220466;79;21456;-87
2022/08/16 03:10:26;;;;;;;20.68;17.12;;;;;;;18.22;100.00;98001.08;2224255;78;20982;-87
2022/08/16 03:13:27;;;;;;;20.45;16.40;;;;;;;18.18;100.00;97997.30;2210855;80;21025;-87
2022/08/16 03:16:30;;;;;;;19.45;16.42;;;;;;;18.18;100.00;98002.60;2207475;79;21042;-87
2022/08/16 03:19:31;;;;;;;18.12;15.30;;;;;;;18.18;100.00;98004.73;2187555;81;20998;-87
2022/08/16 03:22:32;;;;;;;19.87;17.00;;;;;;;18.17;100.00;98001.80;2189056;81;21014;-87
2022/08/16 03:25:33;;;;;;;22.10;16.05;;;;;;;18.17;100.00;98012.92;2187842;79;21513;-90
2022/08/16 03:28:34;;;;;;;20.20;16.87;;;;;;;18.20;100.00;98012.45;2215587;79;20988;-88
2022/08/16 03:31:34;;;;;;;20.85;17.52;;;;;;;18.19;100.00;98011.63;2228016;80;21063;-88
2022/08/16 03:34:35;;;;;;;19.10;15.95;;;;;;;18.23;100.00;98009.83;2221670;80;21025;-88
2022/08/16 03:37:36;;;;;;;20.23;16.10;;;;;;;18.24;100.00;98010.11;2217450;79;20978;-88
2022/08/16 03:40:37;;;;;;;19.42;17.40;;;;;;;18.22;100.00;98009.56;2229777;79;21510;-87
2022/08/16 03:43:38;;;;;;;18.57;16.17;;;;;;;18.17;100.00;98015.05;2220475;79;21551;-89
2022/08/16 03:46:38;;;;;;;19.73;16.48;;;;;;;18.15;100.00;98021.13;2224161;78;21055;-87
2022/08/16 03:49:39;;;;;;;20.65;16.07;;;;;;;18.14;100.00;98018.73;2222444;79;21017;-89
2022/08/16 03:52:40;;;;;;;19.07;16.15;;;;;;;18.13;100.00;98013.95;2228002;79;22171;-87
2022/08/16 03:55:41;;;;;;;17.65;15.63;;;;;;;18.16;100.00;98017.42;2229159;80;21001;-88
2022/08/16 03:58:42;;;;;;;19.57;15.38;;;;;;;18.10;100.00;98019.72;2231941;78;20996;-90
2022/08/16 04:01:43;;;;;;;23.75;15.98;;;;;;;18.01;100.00;98023.03;2235965;78;21534;-85
2022/08/16 04:04:43;;;;;;;17.80;15.88;;;;;;;17.85;100.00;98019.39;2233210;79;20993;-85
2022/08/16 04:07:44;;;;;;;20.60;16.65;;;;;;;17.72;100.00;98018.38;2226352;79;21063;-84
2022/08/16 04:10:45;;;;;;;21.77;17.32;;;;;;;17.67;100.00;98011.67;2231954;78;21040;-86
2022/08/16 04:13:46;;;;;;;20.20;17.57;;;;;;;17.66;100.00;98013.52;2218013;79;21008;-88
2022/08/16 04:16:47;;;;;;;22.40;17.70;;;;;;;17.80;100.00;98016.12;2231626;79;21516;-87
2022/08/16 04:19:49;;;;;;;22.07;17.98;;;;;;;18.01;100.00;98022.51;2235342;79;20941;-86
2022/08/16 04:22:49;;;;;;;23.35;19.07;;;;;;;18.33;100.00;98026.66;2208982;80;21032;-88
2022/08/16 04:25:50;;;;;;;20.72;17.50;;;;;;;18.64;100.00;98022.52;2210742;80;21040;-85
2022/08/16 04:28:51;;;;;;;23.02;17.65;;;;;;;18.92;100.00;98026.02;2208505;80;21092;-87
2022/08/16 04:31:54;;;;;;;20.35;16.30;;;;;;;19.13;100.00;98019.89;2212798;79;21489;-85
2022/08/16 04:34:54;;;;;;;19.17;16.73;;;;;;;19.31;100.00;98024.83;2223110;79;21021;-86
2022/08/16 04:37:55;;;;;;;19.02;16.82;;;;;;;19.46;100.00;98026.80;2227219;79;21084;-85
2022/08/16 04:40:56;;;;;;;19.23;16.37;;;;;;;19.54;100.00;98029.52;2224579;79;21001;-87
2022/08/16 04:43:57;;;;;;;20.55;17.48;;;;;;;19.47;100.00;98027.06;2229838;79;21009;-88
2022/08/16 04:46:58;;;;;;;20.80;15.93;;;;;;;19.49;100.00;98032.14;2219940;79;21097;-89
2022/08/16 04:49:59;;;;;;;19.95;16.80;;;;;;;19.36;100.00;98038.66;2229036;79;21014;-90
2022/08/16 04:53:00;;;;;;;20.82;16.62;;;;;;;19.21;100.00;98030.58;2235847;79;21017;-88
2022/08/16 04:56:00;;;;;;;18.10;16.12;;;;;;;19.17;100.00;98024.16;2236448;80;20978;-89
2022/08/16 04:59:01;;;;;;;20.92;17.07;;;;;;;19.26;100.00;98019.46;2208552;79;21002;-86
2022/08/16 05:02:02;;;;;;;22.50;17.92;;;;;;;19.35;100.00;98019.80;2223490;78;21029;-86
2022/08/16 05:05:03;;;;;;;21.17;17.00;;;;;;;19.36;100.00;98019.27;2225542;78;20981;-86
2022/08/16 05:08:03;;;;;;;22.75;16.32;;;;;;;19.42;100.00;98026.23;2234996;79;21044;-85
2022/08/16 05:11:04;;;;;;;34.58;19.77;;;;;;;19.46;100.00;98040.06;2225391;79;21362;-84
2022/08/16 05:14:05;;;;;;;20.52;16.73;;;;;;;19.14;100.00;98055.98;2234678;79;21032;-85
2022/08/16 05:17:05;;;;;;;22.27;18.23;;;;;;;18.81;100.00;98054.81;2230059;79;20958;-83
2022/08/16 05:20:06;;;;;;;19.73;15.88;;;;;;;18.68;100.00;98049.37;2217531;79;21146;-82
2022/08/16 05:23:07;;;;;;;18.07;15.98;;;;;;;18.75;100.00;98059.28;2220121;80;21107;-81
2022/08/16 05:26:08;;;;;;;24.95;18.85;;;;;;;18.73;100.00;98058.17;2228437;79;21045;-83
2022/08/16 05:29:09;;;;;;;24.98;18.92;;;;;;;18.79;100.00;98059.58;2212553;79;21041;-82
2022/08/16 05:32:09;;;;;;;28.65;18.50;;;;;;;18.88;100.00;98065.52;2223621;79;21009;-82
2022/08/16 05:35:11;;;;;;;27.90;19.62;;;;;;;18.96;100.00;98070.38;2219026;79;21089;-83
2022/08/16 05:38:11;;;;;;;26.23;20.23;;;;;;;19.02;100.00;98061.44;2229536;79;21097;-83
2022/08/16 05:41:12;;;;;;;26.55;18.55;;;;;;;19.16;100.00;98065.01;2227704;79;21048;-82
2022/08/16 05:44:13;;;;;;;27.48;19.52;;;;;;;19.33;100.00;98073.14;2221290;79;21040;-84
2022/08/16 05:47:14;;;;;;;28.67;19.73;;;;;;;19.51;100.00;98080.47;2227583;78;21092;-84
2022/08/16 05:50:15;;;;;;;34.65;25.88;;;;;;;19.69;100.00;98077.47;2216898;80;21527;-83
2022/08/16 05:53:16;;;;;;;59.48;37.35;;;;;;;19.84;100.00;98072.78;2218327;80;21528;-83
2022/08/16 05:56:17;;;;;;;51.18;40.03;;;;;;;20.02;100.00;98063.08;2225802;78;21012;-84
2022/08/16 05:59:18;;;;;;;49.93;39.83;;;;;;;20.14;100.00;98068.23;2217349;80;21033;-81
2022/08/16 06:02:20;;;;;;;55.63;43.75;;;;;;;20.29;100.00;98065.64;2235626;80;21003;-80
2022/08/16 06:05:21;;;;;;;35.95;28.90;;;;;;;20.50;100.00;98069.78;2223440;79;21021;-80
2022/08/16 06:08:22;;;;;;;28.02;23.00;;;;;;;20.70;100.00;98075.98;2219723;79;21012;-82
2022/08/16 06:11:22;;;;;;;27.60;21.60;;;;;;;20.84;100.00;98076.81;2224274;78;21040;-81
2022/08/16 06:14:23;;;;;;;25.48;22.20;;;;;;;20.99;100.00;98080.33;2225241;78;21014;-81
2022/08/16 06:17:24;;;;;;;27.95;22.00;;;;;;;21.15;100.00;98087.83;2224579;79;21024;-81
2022/08/16 06:20:25;;;;;;;40.25;30.95;;;;;;;21.26;100.00;98098.80;2234050;78;21052;-81
2022/08/16 06:23:25;;;;;;;38.30;33.28;;;;;;;21.19;100.00;98102.73;2216479;78;21051;-81
2022/08/16 06:26:26;;;;;;;38.45;31.77;;;;;;;21.17;100.00;98108.86;2229131;78;21033;-81
2022/08/16 06:29:27;;;;;;;36.90;28.40;;;;;;;21.42;100.00;98114.81;2234737;78;20998;-89
2022/08/16 06:32:28;;;;;;;30.25;24.90;;;;;;;21.70;100.00;98104.98;2230846;78;21005;-83
2022/08/16 06:35:30;;;;;;;34.67;21.48;;;;;;;21.91;100.00;98107.63;2229194;78;20985;-82
2022/08/16 06:38:31;;;;;;;29.57;18.15;;;;;;;22.05;100.00;98110.04;2226002;80;21116;-82
2022/08/16 06:41:31;;;;;;;22.77;17.15;;;;;;;22.32;100.00;98117.77;2223133;78;20942;-82
2022/08/16 06:44:32;;;;;;;25.25;18.20;;;;;;;22.59;100.00;98118.23;2228169;80;20981;-82
2022/08/16 06:47:33;;;;;;;20.02;17.85;;;;;;;22.79;100.00;98113.89;2215949;80;21028;-83
2022/08/16 06:50:36;;;;;;;26.00;17.35;;;;;;;22.99;100.00;98115.16;2235045;78;21497;-82
2022/08/16 06:53:37;;;;;;;25.82;17.05;;;;;;;23.19;100.00;98122.27;2222844;78;21096;-82
2022/08/16 06:56:38;;;;;;;19.92;16.87;;;;;;;23.37;100.00;98126.17;2233499;79;21024;-82
2022/08/16 06:59:39;;;;;;;20.15;17.50;;;;;;;23.46;100.00;98125.84;2228373;79;21056;-83
2022/08/16 07:02:39;;;;;;;24.05;17.60;;;;;;;23.49;100.00;98125.28;2235829;78;20945;-81
2022/08/16 07:05:41;;;;;;;22.95;16.73;;;;;;;23.39;100.00;98127.48;2226499;79;20997;-82
2022/08/16 07:08:41;;;;;;;34.35;17.25;;;;;;;23.21;100.00;98119.57;2233384;78;21020;-82
2022/08/16 07:11:42;;;;;;;19.23;17.23;;;;;;;23.06;100.00;98121.01;2231954;78;21068;-83
2022/08/16 07:14:43;;;;;;;21.33;18.32;;;;;;;23.06;100.00;98121.55;2230943;78;21064;-82
2022/08/16 07:17:44;;;;;;;21.12;18.20;;;;;;;23.06;100.00;98121.55;2263128;78;21049;-83
2022/08/16 07:20:44;;;;;;;32.08;20.45;;;;;;;23.18;100.00;98120.67;2256085;78;21028;-82
2022/08/16 07:23:45;;;;;;;33.90;19.15;;;;;;;23.32;100.00;98117.66;2274666;78;20957;-82
2022/08/16 07:26:46;;;;;;;32.78;20.55;;;;;;;23.45;100.00;98124.25;2225866;79;21157;-82
2022/08/16 07:29:47;;;;;;;22.52;17.42;;;;;;;23.63;100.00;98128.17;2232639;79;21111;-82
2022/08/16 07:32:49;;;;;;;29.30;19.17;;;;;;;23.80;100.00;98129.92;2238497;78;20992;-83
2022/08/16 07:35:50;;;;;;;27.85;18.73;;;;;;;24.02;100.00;98134.27;2264391;78;21073;-82
2022/08/16 07:38:51;;;;;;;25.02;16.95;;;;;;;24.18;100.00;98134.14;2235148;78;21036;-82
2022/08/16 07:41:51;;;;;;;18.70;16.65;;;;;;;24.26;100.00;98130.32;2234897;78;20988;-82
2022/08/16 07:44:52;;;;;;;19.77;16.35;;;;;;;24.41;100.00;98128.05;2235831;78;21044;-82
2022/08/16 07:47:56;;;;;;;21.73;18.02;;;;;;;24.46;100.00;98125.87;2229806;79;21015;-82
2022/08/16 07:50:56;;;;;;;21.77;17.23;;;;;;;24.60;100.00;98124.92;2232432;78;21596;-82
2022/08/16 07:53:56;;;;;;;17.85;16.02;;;;;;;24.76;100.00;98125.52;2183935;80;21018;-82
2022/08/16 07:56:57;;;;;;;19.32;15.63;;;;;;;24.95;100.00;98122.34;2207277;80;21064;-82
2022/08/16 08:00:01;;;;;;;19.73;15.78;;;;;;;25.13;100.00;98122.14;2198254;79;21552;-83
2022/08/16 08:03:01;;;;;;;18.07;16.07;;;;;;;25.30;100.00;98126.21;2193869;80;21635;-83
2022/08/16 08:06:02;;;;;;;17.10;15.43;;;;;;;25.40;100.00;98118.82;2138893;82;21029;-83
2022/08/16 08:09:03;;;;;;;16.95;15.45;;;;;;;25.53;100.00;98120.00;2186093;80;21688;-83
2022/08/16 08:12:04;;;;;;;17.60;15.98;;;;;;;25.68;100.00;98113.59;2154399;81;21076;-83
2022/08/16 08:15:04;;;;;;;17.57;15.75;;;;;;;25.87;100.00;98118.94;2128865;83;21037;-82
2022/08/16 08:18:05;;;;;;;16.05;14.47;;;;;;;26.01;100.00;98116.56;2178488;80;21025;-84
2022/08/16 08:21:08;;;;;;;17.37;15.58;;;;;;;26.15;100.00;98111.25;2208894;80;20953;-83
2022/08/16 08:24:08;;;;;;;16.97;15.30;;;;;;;26.19;100.00;98117.60;2234577;78;21622;-81
2022/08/16 08:27:09;;;;;;;17.37;15.72;;;;;;;26.17;100.00;98113.63;2220182;79;20982;-84
2022/08/16 08:30:10;;;;;;;26.15;21.10;;;;;;;26.24;100.00;98101.94;2218030;79;20959;-89
2022/08/16 08:33:11;;;;;;;207.65;182.80;;;;;;;26.53;100.00;98112.46;2227719;79;21539;-86
2022/08/16 08:36:14;;;;;;;40.15;35.33;;;;;;;26.71;100.00;98114.25;2212163;79;21060;-85
2022/08/16 08:39:14;;;;;;;22.07;19.92;;;;;;;26.86;100.00;98113.92;2233135;79;21501;-87
2022/08/16 08:42:15;;;;;;;123.72;96.40;;;;;;;26.98;100.00;98114.77;2227699;79;21001;-85
2022/08/16 08:45:16;;;;;;;122.53;96.78;;;;;;;27.09;100.00;98116.72;2199469;79;21465;-85
2022/08/16 08:48:16;;;;;;;102.47;77.67;;;;;;;27.19;100.00;98120.53;2224614;79;21032;-82
2022/08/16 08:51:17;;;;;;;22.82;20.52;;;;;;;27.33;100.00;98122.62;2221427;79;21492;-83
2022/08/16 08:54:18;;;;;;;36.98;26.95;;;;;;;27.42;100.00;98126.73;2216053;78;21483;-84
2022/08/16 08:57:19;;;;;;;27.15;24.23;;;;;;;27.46;100.00;98119.66;2231240;79;20992;-84
2022/08/16 09:00:21;;;;;;;33.25;29.55;;;;;;;27.54;100.00;98122.98;2207189;79;20985;-87
2022/08/16 09:03:22;;;;;;;21.37;19.23;;;;;;;27.58;100.00;98128.53;2158010;81;21045;-87
2022/08/16 09:06:23;;;;;;;18.92;16.42;;;;;;;27.58;100.00;98124.49;2144278;81;21545;-87
2022/08/16 09:09:27;;;;;;;23.27;16.17;;;;;;;27.52;100.00;98127.05;2132162;82;21004;-86
2022/08/16 09:12:27;;;;;;;17.27;15.60;;;;;;;27.48;100.00;98122.28;2169139;80;21017;-87
2022/08/16 09:15:28;;;;;;;16.70;15.10;;;;;;;27.43;100.00;98126.97;2163431;81;21021;-87
2022/08/16 09:18:29;;;;;;;18.82;16.25;;;;;;;27.34;100.00;98127.45;2185851;80;21469;-85
2022/08/16 09:21:30;;;;;;;18.87;15.80;;;;;;;27.30;100.00;98125.13;2189161;80;21077;-87
2022/08/16 09:24:31;;;;;;;19.60;17.37;;;;;;;27.27;100.00;98125.75;2145677;81;21036;-87
2022/08/16 09:27:32;;;;;;;16.95;15.25;;;;;;;27.29;100.00;98127.02;2183048;81;21507;-86
2022/08/16 09:30:35;;;;;;;20.92;17.17;;;;;;;27.38;100.00;98125.20;2177964;81;21584;-88
2022/08/16 09:33:36;;;;;;;17.65;15.70;;;;;;;27.43;100.00;98125.11;2157424;81;21102;-87
2022/08/16 09:36:37;;;;;;;18.20;16.40;;;;;;;27.59;100.00;98126.08;2224921;78;21038;-87
2022/08/16 09:39:38;;;;;;;17.07;15.55;;;;;;;27.75;100.00;98130.83;2218409;80;20985;-87
2022/08/16 09:42:39;;;;;;;16.20;14.53;;;;;;;27.98;100.00;98131.63;2186966;79;20977;-89
2022/08/16 09:45:41;;;;;;;15.78;14.15;;;;;;;28.05;100.00;98140.04;2139142;83;21057;-88
2022/08/16 09:48:42;;;;;;;14.87;13.53;;;;;;;28.16;100.00;98135.19;2141319;80;21047;-85
2022/08/16 09:51:42;;;;;;;14.85;13.45;;;;;;;28.24;100.00;98133.09;2178668;81;21323;-84
2022/08/16 09:54:43;;;;;;;15.35;13.85;;;;;;;28.35;100.00;98129.65;2134984;81;21052;-83
2022/08/16 09:57:44;;;;;;;16.80;14.95;;;;;;;28.40;100.00;98132.19;2231323;79;22119;-84
2022/08/16 10:00:45;;;;;;;17.05;15.28;;;;;;;28.48;100.00;98134.13;2227221;78;21032;-84
2022/08/16 10:03:46;;;;;;;18.37;16.40;;;;;;;28.59;100.00;98133.30;2223120;78;20962;-84
2022/08/16 10:06:46;;;;;;;16.35;14.90;;;;;;;28.66;100.00;98135.55;2191872;81;21055;-81
2022/08/16 10:09:47;;;;;;;14.75;13.35;;;;;;;28.59;100.00;98135.98;2196389;81;20986;-83
2022/08/16 10:16:07;;;;;;;11.57;10.28;;;;;;;28.54;100.00;98140.18;2229518;79;21160;-83
2022/08/16 10:19:08;;;;;;;10.68;9.68;;;;;;;28.49;100.00;98146.48;2235473;80;20950;-83
2022/08/16 10:22:09;;;;;;;10.78;9.78;;;;;;;28.54;100.00;98141.53;2234149;79;21039;-84
2022/08/16 10:25:10;;;;;;;11.57;10.30;;;;;;;28.63;100.00;98138.31;2230440;78;21057;-83
2022/08/16 10:28:11;;;;;;;11.33;10.25;;;;;;;28.64;100.00;98143.94;2219417;80;21036;-84
2022/08/16 10:31:12;;;;;;;13.22;10.38;;;;;;;28.67;100.00;98139.27;2178170;81;21555;-83
2022/08/16 10:34:12;;;;;;;12.10;10.28;;;;;;;28.76;100.00;98145.48;2155495;81;21012;-83
2022/08/16 10:37:17;;;;;;;11.40;10.28;;;;;;;28.71;100.00;98148.33;2207689;80;20969;-84
2022/08/16 10:40:18;;;;;;;12.70;11.50;;;;;;;28.73;100.00;98142.63;2182946;79;21529;-84
2022/08/16 10:43:19;;;;;;;11.48;10.48;;;;;;;28.81;100.00;98137.27;2232779;79;21063;-84
2022/08/16 10:46:20;;;;;;;11.30;10.20;;;;;;;28.91;100.00;98141.61;2234848;78;20942;-83
2022/08/16 10:49:20;;;;;;;13.15;11.78;;;;;;;28.97;100.00;98143.02;2226097;80;21005;-84
2022/08/16 10:52:21;;;;;;;12.60;11.48;;;;;;;28.91;100.00;98141.61;2234461;79;20982;-84
2022/08/16 10:55:22;;;;;;;12.78;11.68;;;;;;;28.92;100.00;98137.80;2217990;80;21512;-84
2022/08/16 10:58:23;;;;;;;12.93;11.63;;;;;;;28.98;100.00;98141.13;2181698;80;21001;-83
2022/08/16 11:01:28;;;;;;;12.18;11.18;;;;;;;28.98;100.00;98142.47;2144674;82;20977;-85
2022/08/16 11:04:26;;;;;;;12.58;11.40;;;;;;;28.92;100.00;98145.88;2180650;80;21089;-84
2022/08/16 11:07:28;;;;;;;12.15;10.95;;;;;;;28.81;100.00;98141.31;2119179;82;21159;-84
2022/08/16 11:10:28;;;;;;;11.88;10.60;;;;;;;28.78;100.00;98136.52;2120902;82;21167;-83
2022/08/16 11:13:29;;;;;;;10.13;9.10;;;;;;;28.77;100.00;98134.94;2182430;81;20999;-83
2022/08/16 11:16:30;;;;;;;9.50;8.63;;;;;;;28.76;100.00;98137.40;2197222;80;20970;-84
2022/08/16 11:19:31;;;;;;;10.78;9.55;;;;;;;28.76;100.00;98137.40;2200488;79;21497;-84
2022/08/16 11:22:32;;;;;;;8.70;7.83;;;;;;;28.77;100.00;98127.42;2199478;79;20997;-84
2022/08/16 11:25:33;;;;;;;11.22;9.10;;;;;;;28.76;100.00;98134.70;2198884;79;21465;-83
2022/08/16 11:28:34;;;;;;;8.05;7.45;;;;;;;28.72;100.00;98131.06;2197560;81;20986;-83
2022/08/16 11:31:35;;;;;;;8.90;8.10;;;;;;;28.75;98.50;98133.13;2199663;79;21085;-84
2022/08/16 11:34:36;;;;;;;10.63;8.65;;;;;;;28.79;100.00;98128.69;2203196;79;21062;-84
2022/08/16 11:37:37;;;;;;;10.20;9.23;;;;;;;28.79;100.00;98131.38;2201415;79;21033;-85
2022/08/16 11:40:38;;;;;;;11.53;9.98;;;;;;;28.85;99.82;98123.41;2209738;79;20925;-84
2022/08/16 11:43:39;;;;;;;10.65;9.63;;;;;;;28.98;100.00;98123.61;2192136;79;21081;-85
2022/08/16 11:46:39;;;;;;;11.50;9.53;;;;;;;28.97;97.99;98122.03;2207580;80;21062;-84
2022/08/16 11:49:40;;;;;;;10.45;9.50;;;;;;;28.94;99.95;98121.31;2196625;81;21041;-85
2022/08/16 11:52:41;;;;;;;10.95;9.90;;;;;;;28.99;98.75;98117.93;2191406;80;21016;-85
2022/08/16 11:55:42;;;;;;;9.65;8.75;;;;;;;29.06;100.00;98105.32;2200480;79;20962;-85
2022/08/16 11:58:43;;;;;;;8.65;7.85;;;;;;;29.16;97.21;98099.62;2194619;80;21621;-84
2022/08/16 12:01:43;;;;;;;9.85;9.05;;;;;;;29.20;93.57;98101.94;2193437;80;21029;-84
2022/08/16 12:04:44;;;;;;;9.15;8.43;;;;;;;29.29;95.85;98107.34;2200204;80;21002;-83
2022/08/16 12:07:45;;;;;;;10.53;9.73;;;;;;;29.33;96.53;98100.98;2192151;79;21707;-85
2022/08/16 12:10:46;;;;;;;12.98;9.65;;;;;;;29.23;94.64;98097.81;2190695;81;20998;-85
2022/08/16 12:13:47;;;;;;;9.05;8.35;;;;;;;29.06;94.85;98096.68;2196449;80;21114;-85
2022/08/16 12:16:48;;;;;;;9.88;8.80;;;;;;;28.98;93.49;98095.31;2195868;80;20966;-85
2022/08/16 12:19:48;;;;;;;7.83;6.85;;;;;;;28.85;93.51;98093.77;2202047;79;20981;-85
2022/08/16 12:22:50;;;;;;;9.18;8.18;;;;;;;28.83;92.40;98089.81;2201252;80;21553;-86
2022/08/16 12:25:50;;;;;;;7.85;6.78;;;;;;;28.86;91.71;98092.66;2198307;80;21104;-88
2022/08/16 12:28:52;;;;;;;8.18;7.42;;;;;;;28.92;87.69;98087.95;2198307;79;21044;-84
2022/08/16 12:31:52;;;;;;;9.20;7.75;;;;;;;28.95;82.65;98076.55;2196940;81;21040;-91
2022/08/16 12:34:53;;;;;;;8.90;8.00;;;;;;;29.03;60.54;98077.11;2198267;79;20990;-87
2022/08/16 12:37:55;;;;;;;8.08;7.47;;;;;;;29.07;54.69;98070.52;2197502;81;20950;-84
2022/08/16 12:40:57;;;;;;;9.53;7.62;;;;;;;29.11;53.06;98074.19;2197558;81;21046;-88
2022/08/16 12:44:00;;;;;;;9.45;8.63;;;;;;;29.22;54.00;98079.50;2192311;79;21040;-87
2022/08/16 12:50:21;;;;;;;10.82;9.08;;;;;;;29.25;54.21;98080.77;2238718;79;21358;-88
2022/08/16 12:53:23;;;;;;;11.35;8.35;;;;;;;29.30;54.84;98079.27;2210307;80;21673;-87
2022/08/16 12:56:24;;;;;;;8.83;8.03;;;;;;;29.36;54.97;98073.41;2202903;80;20974;-86
2022/08/16 12:59:25;;;;;;;8.75;7.95;;;;;;;29.45;54.84;98064.77;2199908;80;21568;-86
2022/08/16 13:02:26;;;;;;;8.55;7.85;;;;;;;29.49;52.94;98073.03;2200437;79;20998;-83
2022/08/16 13:05:27;;;;;;;9.53;7.62;;;;;;;29.53;53.10;98066.43;2200849;80;21037;-83
2022/08/16 13:08:28;;;;;;;12.93;8.23;;;;;;;29.58;52.33;98076.51;2200766;79;21052;-84
2022/08/16 13:11:29;;;;;;;8.78;7.87;;;;;;;29.60;53.65;98080.23;2199244;80;21129;-86
2022/08/16 13:14:32;;;;;;;8.20;7.50;;;;;;;29.62;52.35;98079.34;2185706;80;20986;-86
2022/08/16 13:17:34;;;;;;;7.90;6.87;;;;;;;29.57;51.89;98081.67;2167921;79;21433;-86
2022/08/16 13:20:34;;;;;;;7.83;7.12;;;;;;;29.49;51.05;98079.77;2178950;81;21102;-86
2022/08/16 13:23:35;;;;;;;8.55;7.55;;;;;;;29.41;51.46;98077.84;2192838;79;21029;-83
2022/08/16 13:26:36;;;;;;;15.75;10.85;;;;;;;29.28;51.87;98072.86;2199360;81;20946;-87
2022/08/16 13:29:37;;;;;;;13.43;11.88;;;;;;;29.12;55.74;98075.22;2148811;81;21553;-85
2022/08/16 13:32:37;;;;;;;12.37;10.88;;;;;;;28.82;59.77;98080.15;2188634;79;20974;-86
2022/08/16 13:35:38;;;;;;;14.55;11.30;;;;;;;28.54;60.72;98075.56;2196285;81;21489;-87
2022/08/16 13:38:41;;;;;;;16.45;11.78;;;;;;;28.43;61.55;98084.45;2196011;80;21517;-85
2022/08/16 13:41:43;;;;;;;13.80;12.13;;;;;;;28.26;62.89;98079.78;2182804;79;21024;-89
2022/08/16 13:44:44;;;;;;;13.62;11.60;;;;;;;28.15;64.61;98087.06;2191744;81;21062;-86
2022/08/16 13:47:48;;;;;;;17.02;14.70;;;;;;;28.05;64.85;98075.47;2197695;81;21010;-88
2022/08/16 13:50:50;;;;;;;16.20;11.88;;;;;;;28.05;65.59;98077.36;2197408;81;21525;-84